createdAt,value
2022-08-17T00:01:52.004Z,23.16
2022-08-17T00:04:21.090Z,23.05
2022-08-17T00:06:49.540Z,22.90
2022-08-17T00:09:19.026Z,22.92
2022-08-17T00:12:41.652Z,22.95
2022-08-17T00:14:36.171Z,23.02
2022-08-17T00:17:04.680Z,23.02
2022-08-17T00:19:32.727Z,23.11
2022-08-17T00:22:33.972Z,23.05
2022-08-17T00:24:50.276Z,23.03
2022-08-17T00:27:18.001Z,23.15
2022-08-17T00:29:46.024Z,23.08
2022-08-17T00:33:11.986Z,23.01
2022-08-17T00:35:06.380Z,23.23
2022-08-17T00:37:32.986Z,23.22
2022-08-17T00:39:59.671Z,23.15
2022-08-17T00:42:30.831Z,23.21
2022-08-17T00:44:58.160Z,22.98
2022-08-17T00:47:24.790Z,22.82
2022-08-17T00:49:51.844Z,22.84
2022-08-17T00:52:23.168Z,22.87
2022-08-17T00:54:54.036Z,22.82
2022-08-17T00:57:33.005Z,22.75
2022-08-17T01:00:09.711Z,22.65
2022-08-17T01:02:51.486Z,22.75
2022-08-17T01:05:23.563Z,22.74
2022-08-17T01:07:52.755Z,22.78
2022-08-17T01:10:57.142Z,22.64
2022-08-17T01:13:16.970Z,22.65
2022-08-17T01:15:55.480Z,22.59
2022-08-17T01:18:22.157Z,22.63
2022-08-17T01:20:53.190Z,22.53
2022-08-17T01:23:23.656Z,22.44
2022-08-17T01:25:52.242Z,22.41
2022-08-17T01:28:36.413Z,22.43
2022-08-17T01:31:08.414Z,22.44
2022-08-17T01:33:35.595Z,22.36
2022-08-17T01:36:04.078Z,22.34
2022-08-17T01:38:32.012Z,22.32
2022-08-17T01:41:03.252Z,22.27
2022-08-17T01:43:43.497Z,22.26
2022-08-17T01:46:17.145Z,22.24
2022-08-17T01:48:47.420Z,22.26
2022-08-17T01:51:15.635Z,22.27
2022-08-17T01:53:47.585Z,22.14
2022-08-17T01:56:17.301Z,22.12
2022-08-17T01:58:44.061Z,22.12
2022-08-17T02:01:14.197Z,22.09
2022-08-17T02:03:41.971Z,21.97
2022-08-17T02:06:27.714Z,21.92
2022-08-17T02:09:01.801Z,21.90
2022-08-17T02:11:32.449Z,21.81
2022-08-17T02:14:03.251Z,21.79
2022-08-17T02:16:36.917Z,21.72
2022-08-17T02:19:07.562Z,21.71
2022-08-17T02:21:34.733Z,21.64
2022-08-17T02:24:01.771Z,21.68
2022-08-17T02:26:28.419Z,21.58
2022-08-17T02:28:55.174Z,21.56
2022-08-17T02:31:21.864Z,21.52
2022-08-17T02:34:00.443Z,21.52
2022-08-17T02:36:32.993Z,21.51
2022-08-17T02:39:01.601Z,21.56
2022-08-17T02:41:28.320Z,21.49
2022-08-17T02:43:54.980Z,21.39
2022-08-17T02:46:22.624Z,21.41
2022-08-17T02:48:49.267Z,21.41
2022-08-17T02:51:15.922Z,21.48
2022-08-17T02:53:42.487Z,21.37
2022-08-17T02:56:09.072Z,21.37
2022-08-17T02:58:36.264Z,21.30
2022-08-17T03:01:06.106Z,21.31
2022-08-17T03:03:32.812Z,21.21
2022-08-17T03:05:59.398Z,21.24
2022-08-17T03:08:26.036Z,21.21
2022-08-17T03:10:52.878Z,21.16
2022-08-17T03:13:20.170Z,21.11
2022-08-17T03:15:47.713Z,21.10
2022-08-17T03:18:24.447Z,21.07
2022-08-17T03:20:54.487Z,20.98
2022-08-17T03:23:24.450Z,21.01
2022-08-17T03:25:53.946Z,20.88
2022-08-17T03:28:22.612Z,20.90
2022-08-17T03:30:53.394Z,20.94
2022-08-17T03:33:20.320Z,20.84
2022-08-17T03:35:47.186Z,20.86
2022-08-17T03:38:17.589Z,20.81
2022-08-17T03:40:57.432Z,20.84
2022-08-17T03:43:28.244Z,20.94
2022-08-17T03:46:28.636Z,20.93
2022-08-17T03:49:18.486Z,20.75
2022-08-17T03:52:03.796Z,20.90
2022-08-17T03:54:52.104Z,20.80
2022-08-17T03:57:19.281Z,20.73
2022-08-17T03:59:45.992Z,20.76
2022-08-17T04:02:25.550Z,20.81
2022-08-17T04:04:57.860Z,20.84
2022-08-17T04:07:28.681Z,20.79
2022-08-17T04:09:55.689Z,20.84
2022-08-17T04:12:24.122Z,20.72
2022-08-17T04:14:52.586Z,20.80
2022-08-17T04:17:22.907Z,20.81
2022-08-17T04:19:49.590Z,20.86
2022-08-17T04:22:33.235Z,20.86
2022-08-17T04:25:20.808Z,20.81
2022-08-17T04:27:48.858Z,20.96
2022-08-17T04:30:17.741Z,20.93
2022-08-17T04:33:06.389Z,21.03
2022-08-17T04:35:43.077Z,21.06
2022-08-17T04:38:13.119Z,20.98
2022-08-17T04:40:58.621Z,21.06
2022-08-17T04:43:27.109Z,21.18
2022-08-17T04:46:00.498Z,21.21
2022-08-17T04:48:35.410Z,21.27
2022-08-17T04:51:24.469Z,21.14
2022-08-17T04:53:57.833Z,21.10
2022-08-17T04:56:26.332Z,21.07
2022-08-17T04:58:55.959Z,21.13
2022-08-17T05:01:24.809Z,21.10
2022-08-17T05:03:56.378Z,21.06
2022-08-17T05:06:23.288Z,21.11
2022-08-17T05:08:49.871Z,21.23
2022-08-17T05:11:16.693Z,21.24
2022-08-17T05:13:43.619Z,21.30
2022-08-17T05:16:10.493Z,21.32
2022-08-17T05:18:39.938Z,21.31
2022-08-17T05:21:07.269Z,21.52
2022-08-17T05:23:42.753Z,21.44
2022-08-17T05:26:19.834Z,21.62
2022-08-17T05:28:53.649Z,21.81
2022-08-17T05:31:20.988Z,21.82
2022-08-17T05:33:47.740Z,21.81
2022-08-17T05:36:43.287Z,21.81
2022-08-17T05:39:02.497Z,21.96
2022-08-17T05:41:29.075Z,21.93
2022-08-17T05:43:56.530Z,22.00
2022-08-17T05:46:35.670Z,22.03
2022-08-17T05:49:08.044Z,22.04
2022-08-17T05:51:57.013Z,22.09
2022-08-17T05:54:29.619Z,22.24
2022-08-17T05:57:18.085Z,22.23
2022-08-17T06:00:01.035Z,22.26
2022-08-17T06:02:47.862Z,22.33
2022-08-17T06:05:27.646Z,22.36
2022-08-17T06:08:07.553Z,22.47
2022-08-17T06:10:53.370Z,22.44
2022-08-17T06:13:32.107Z,22.55
2022-08-17T06:16:17.796Z,22.47
2022-08-17T06:19:15.989Z,22.64
2022-08-17T06:21:47.829Z,22.74
2022-08-17T06:24:29.104Z,22.88
2022-08-17T06:27:06.317Z,22.99
2022-08-17T06:33:40.539Z,22.87
2022-08-17T06:36:29.446Z,22.67
2022-08-17T06:39:01.849Z,22.88
2022-08-17T06:42:00.437Z,23.05
2022-08-17T06:44:51.024Z,23.21
2022-08-17T06:47:47.642Z,23.42
2022-08-17T06:50:24.172Z,23.59
2022-08-17T06:53:03.756Z,23.70
2022-08-17T06:55:38.248Z,23.84
2022-08-17T06:58:15.664Z,23.97
2022-08-17T07:00:47.189Z,23.97
2022-08-17T07:03:28.203Z,23.93
2022-08-17T07:06:00.981Z,23.91
2022-08-17T07:08:44.695Z,23.97
2022-08-17T07:11:16.379Z,24.05
2022-08-17T07:13:51.338Z,24.04
2022-08-17T07:16:30.576Z,24.24
2022-08-17T07:18:59.685Z,24.34
2022-08-17T07:21:38.742Z,24.25
2022-08-17T07:24:29.170Z,24.28
2022-08-17T07:27:17.211Z,24.21
2022-08-17T07:30:03.782Z,24.41
2022-08-17T07:33:01.069Z,24.42
2022-08-17T07:35:37.528Z,24.48
2022-08-17T07:38:25.506Z,24.51
2022-08-17T07:40:57.870Z,24.51
2022-08-17T07:43:42.937Z,24.41
2022-08-17T07:46:43.009Z,24.28
2022-08-17T07:49:09.568Z,24.68
2022-08-17T07:51:45.773Z,24.78
2022-08-17T07:54:15.268Z,24.73
2022-08-17T07:56:41.870Z,24.66
2022-08-17T07:59:12.897Z,24.71
2022-08-17T08:01:44.326Z,24.76
2022-08-17T08:04:43.206Z,24.86
2022-08-17T08:07:21.626Z,24.78
2022-08-17T08:10:11.374Z,24.66
2022-08-17T08:12:43.424Z,24.68
2022-08-17T08:15:19.097Z,24.97
2022-08-17T08:18:04.299Z,24.76
2022-08-17T08:20:53.072Z,24.68
2022-08-17T08:23:25.688Z,24.52
2022-08-17T08:26:07.322Z,24.41
2022-08-17T08:29:00.918Z,24.21
2022-08-17T08:31:42.063Z,24.28
2022-08-17T08:34:58.907Z,24.37
2022-08-17T08:37:20.616Z,24.11
2022-08-17T08:40:15.115Z,24.16
2022-08-17T08:42:52.867Z,24.11
2022-08-17T08:45:24.305Z,24.13
2022-08-17T08:47:53.959Z,24.01
2022-08-17T08:50:38.108Z,24.11
2022-08-17T08:53:11.067Z,24.14
2022-08-17T08:55:56.116Z,24.08
2022-08-17T08:58:43.635Z,24.07
2022-08-17T09:01:20.983Z,23.97
2022-08-17T09:04:25.538Z,24.05
2022-08-17T09:06:57.990Z,23.98
2022-08-17T09:10:03.666Z,24.00
2022-08-17T09:12:35.741Z,24.04
2022-08-17T09:15:25.681Z,24.10
2022-08-17T09:19:01.293Z,23.93
2022-08-17T09:21:01.015Z,23.83
2022-08-17T09:23:33.098Z,23.83
2022-08-17T09:26:37.057Z,23.94
2022-08-17T09:29:11.712Z,23.91
2022-08-17T09:31:57.377Z,23.96
2022-08-17T09:34:52.735Z,24.00
2022-08-17T09:37:30.848Z,23.91
2022-08-17T09:40:14.009Z,23.80
2022-08-17T09:42:55.688Z,23.67
2022-08-17T09:45:28.388Z,23.65
2022-08-17T09:48:22.911Z,23.70
2022-08-17T09:51:22.794Z,23.63
2022-08-17T09:53:50.877Z,23.62
2022-08-17T09:56:47.055Z,23.59
2022-08-17T09:59:38.709Z,23.49
2022-08-17T10:02:31.254Z,23.47
2022-08-17T10:05:09.878Z,23.45
2022-08-17T10:07:56.089Z,23.33
2022-08-17T10:10:56.865Z,23.29
2022-08-17T10:13:41.297Z,23.26
2022-08-17T10:16:43.946Z,23.14
2022-08-17T10:19:20.026Z,23.09
2022-08-17T10:22:32.473Z,23.32
2022-08-17T10:25:23.459Z,23.30
2022-08-17T10:27:57.844Z,23.26
2022-08-17T10:30:27.484Z,23.40
2022-08-17T10:33:01.969Z,23.53
2022-08-17T10:35:40.550Z,23.56
2022-08-17T10:38:33.589Z,23.59
2022-08-17T10:41:18.965Z,23.70
2022-08-17T10:44:38.414Z,23.87
2022-08-17T10:47:05.964Z,24.10
2022-08-17T10:49:35.896Z,24.21
2022-08-17T10:52:20.984Z,23.98
2022-08-17T10:54:47.631Z,23.94
2022-08-17T10:57:29.459Z,24.20
2022-08-17T10:59:58.827Z,24.28
2022-08-17T11:02:28.040Z,24.29
2022-08-17T11:05:06.417Z,24.51
2022-08-17T11:07:33.055Z,25.23
2022-08-17T11:10:21.543Z,26.04
2022-08-17T11:13:28.118Z,26.04
2022-08-17T11:16:03.566Z,26.46
2022-08-17T11:18:43.477Z,26.90
2022-08-17T11:21:35.001Z,27.70
2022-08-17T11:24:19.261Z,27.82
2022-08-17T11:27:12.129Z,26.73
2022-08-17T11:29:58.137Z,26.31
2022-08-17T11:32:34.047Z,26.13
2022-08-17T11:35:22.041Z,25.86
2022-08-17T11:38:28.425Z,25.68
2022-08-17T11:40:58.092Z,26.33
2022-08-17T11:43:49.883Z,27.55
2022-08-17T11:46:55.353Z,27.17
2022-08-17T11:49:55.543Z,26.57
2022-08-17T11:52:39.789Z,26.88
2022-08-17T11:55:33.989Z,26.76
2022-08-17T11:58:29.731Z,26.79
2022-08-17T12:00:59.805Z,26.23
2022-08-17T12:03:55.231Z,26.25
2022-08-17T12:06:41.259Z,26.23
2022-08-17T12:09:16.204Z,27.58
2022-08-17T12:12:12.445Z,28.21
2022-08-17T12:17:41.818Z,28.48
2022-08-17T12:20:35.653Z,28.13
2022-08-17T12:23:11.297Z,28.67
2022-08-17T12:25:43.676Z,28.24
2022-08-17T12:28:31.443Z,28.63
2022-08-17T12:31:08.567Z,28.41
2022-08-17T12:33:40.365Z,27.90
2022-08-17T12:36:08.972Z,28.04
2022-08-17T12:38:37.854Z,28.47
2022-08-17T12:41:26.299Z,29.15
2022-08-17T12:44:05.704Z,28.72
2022-08-17T12:46:45.070Z,29.08
2022-08-17T12:49:28.193Z,28.98
2022-08-17T12:52:03.006Z,28.75
2022-08-17T12:54:39.180Z,28.48
2022-08-17T12:57:13.558Z,29.95
2022-08-17T12:59:43.536Z,29.74
2022-08-17T13:02:28.380Z,29.66
2022-08-17T13:04:57.441Z,29.60
2022-08-17T13:07:35.523Z,28.33
2022-08-17T13:10:02.668Z,28.48
2022-08-17T13:12:35.888Z,28.17
2022-08-17T13:15:03.148Z,27.25
2022-08-17T13:17:36.098Z,27.58
2022-08-17T13:20:06.179Z,27.94
2022-08-17T13:22:32.841Z,28.16
2022-08-17T13:25:09.168Z,29.14
2022-08-17T13:27:35.844Z,28.77
2022-08-17T13:30:08.233Z,29.16
2022-08-17T13:32:43.937Z,29.46
2022-08-17T13:35:39.502Z,29.93
2022-08-17T13:38:16.547Z,28.98
2022-08-17T13:40:52.779Z,28.61
2022-08-17T13:43:58.120Z,27.45
2022-08-17T13:46:31.210Z,27.53
2022-08-17T13:49:04.134Z,26.88
2022-08-17T13:51:45.961Z,26.59
2022-08-17T13:54:24.612Z,26.31
2022-08-17T13:56:57.816Z,27.22
2022-08-17T13:59:38.222Z,27.92
2022-08-17T14:02:15.436Z,28.56
2022-08-17T14:04:43.285Z,28.77
2022-08-17T14:07:11.603Z,28.91
2022-08-17T14:09:43.631Z,28.07
2022-08-17T14:12:12.771Z,27.52
2022-08-17T14:14:40.807Z,28.64
2022-08-17T14:17:07.980Z,29.30
2022-08-17T14:19:35.644Z,28.96
2022-08-17T14:22:03.423Z,28.03
2022-08-17T14:24:33.389Z,27.90
2022-08-17T14:27:01.374Z,27.42
2022-08-17T14:29:30.085Z,27.35
2022-08-17T14:31:58.403Z,26.95
2022-08-17T14:34:25.806Z,26.56
2022-08-17T14:36:52.902Z,26.80
2022-08-17T14:39:20.129Z,26.47
2022-08-17T14:41:46.692Z,26.93
2022-08-17T14:44:13.526Z,26.95
2022-08-17T14:46:41.600Z,26.93
2022-08-17T14:49:11.696Z,27.73
2022-08-17T14:51:43.550Z,28.68
2022-08-17T14:54:33.610Z,28.30
2022-08-17T14:57:22.877Z,27.83
2022-08-17T14:59:47.005Z,27.99
2022-08-17T15:02:13.582Z,27.10
2022-08-17T15:04:45.425Z,27.01
2022-08-17T15:07:12.456Z,26.83
2022-08-17T15:09:39.246Z,27.30
2022-08-17T15:12:06.697Z,27.37
2022-08-17T15:14:35.478Z,27.22
2022-08-17T15:17:05.715Z,27.17
2022-08-17T15:19:32.593Z,26.74
2022-08-17T15:21:59.237Z,26.93
2022-08-17T15:24:25.807Z,27.24
2022-08-17T15:26:52.344Z,27.01
2022-08-17T15:29:18.915Z,26.80
2022-08-17T15:31:45.537Z,27.08
2022-08-17T15:34:12.076Z,27.59
2022-08-17T15:36:38.884Z,27.41
2022-08-17T15:39:12.307Z,28.04
2022-08-17T15:41:38.890Z,27.59
2022-08-17T15:44:05.507Z,27.46
2022-08-17T15:46:32.113Z,27.63
2022-08-17T15:49:02.105Z,26.97
2022-08-17T15:51:34.426Z,27.49
2022-08-17T15:54:18.694Z,27.69
2022-08-17T15:56:48.876Z,27.65
2022-08-17T15:59:15.677Z,27.83
2022-08-17T16:03:14.773Z,27.97
2022-08-17T16:04:30.988Z,28.48
2022-08-17T16:06:59.713Z,28.34
2022-08-17T16:09:26.206Z,29.00
2022-08-17T16:11:55.240Z,28.89
2022-08-17T16:14:24.167Z,28.40
2022-08-17T16:16:51.017Z,28.47
2022-08-17T16:19:17.731Z,28.28
2022-08-17T16:21:44.305Z,27.73
2022-08-17T16:24:13.175Z,28.17
2022-08-17T16:26:40.502Z,27.73
2022-08-17T16:29:07.258Z,27.48
2022-08-17T16:31:34.286Z,27.80
2022-08-17T16:34:15.940Z,27.99
2022-08-17T16:36:53.748Z,27.69
2022-08-17T16:39:23.310Z,27.89
2022-08-17T16:41:50.426Z,27.20
2022-08-17T16:44:18.405Z,26.84
2022-08-17T16:46:46.968Z,26.64
2022-08-17T16:49:36.217Z,26.87
2022-08-17T16:52:03.033Z,27.41
2022-08-17T16:54:29.963Z,27.76
2022-08-17T16:56:56.720Z,27.68
2022-08-17T16:59:30.415Z,27.59
2022-08-17T17:02:05.015Z,27.27
2022-08-17T17:04:35.298Z,27.22
2022-08-17T17:07:37.244Z,27.49
2022-08-17T17:10:20.223Z,27.35
2022-08-17T17:13:03.725Z,27.58
2022-08-17T17:16:14.723Z,27.39
2022-08-17T17:19:13.948Z,27.27
2022-08-17T17:21:59.522Z,26.80
2022-08-17T17:24:56.585Z,26.74
2022-08-17T17:27:37.699Z,26.60
2022-08-17T17:30:24.481Z,26.47
2022-08-17T17:33:09.402Z,26.36
2022-08-17T17:35:49.960Z,26.31
2022-08-17T17:38:48.406Z,26.28
2022-08-17T17:41:42.775Z,26.43
2022-08-17T17:44:13.239Z,26.46
2022-08-17T17:46:50.377Z,26.49
2022-08-17T17:49:18.266Z,26.21
2022-08-17T17:52:09.981Z,26.09
2022-08-17T17:58:55.859Z,26.09
2022-08-17T18:01:56.776Z,25.73
2022-08-17T18:04:37.594Z,25.54
2022-08-17T18:07:18.011Z,25.47
2022-08-17T18:09:51.993Z,25.41
2022-08-17T18:12:40.713Z,25.33
2022-08-17T18:15:24.107Z,25.36
2022-08-17T18:18:31.187Z,25.31
2022-08-17T18:21:07.756Z,25.33
2022-08-17T18:23:34.680Z,25.16
2022-08-17T18:26:02.221Z,25.03
2022-08-17T18:28:41.109Z,24.97
2022-08-17T18:31:21.498Z,24.95
2022-08-17T18:33:54.390Z,24.78
2022-08-17T18:36:33.730Z,24.64
2022-08-17T18:39:26.490Z,24.71
2022-08-17T18:41:56.637Z,24.59
2022-08-17T18:44:35.439Z,24.45
2022-08-17T18:47:13.828Z,24.34
2022-08-17T18:49:49.063Z,24.28
2022-08-17T18:52:21.777Z,24.13
2022-08-17T18:55:09.049Z,24.29
2022-08-17T18:57:43.702Z,24.08
2022-08-17T19:00:33.349Z,24.14
2022-08-17T19:03:02.521Z,24.08
2022-08-17T19:05:33.234Z,24.10
2022-08-17T19:08:29.910Z,24.01
2022-08-17T19:11:07.401Z,23.94
2022-08-17T19:13:50.751Z,23.86
2022-08-17T19:16:29.718Z,23.83
2022-08-17T19:19:07.776Z,23.87
2022-08-17T19:21:40.319Z,23.86
2022-08-17T19:24:22.206Z,23.79
2022-08-17T19:27:06.230Z,23.66
2022-08-17T19:29:41.487Z,23.66
2022-08-17T19:32:09.557Z,23.60
2022-08-17T19:34:37.651Z,23.62
2022-08-17T19:37:23.916Z,23.65
2022-08-17T19:39:53.541Z,23.50
2022-08-17T19:42:47.719Z,23.39
2022-08-17T19:45:18.198Z,23.36
2022-08-17T19:48:03.061Z,23.30
2022-08-17T19:50:56.539Z,23.16
2022-08-17T19:54:07.127Z,23.28
2022-08-17T19:56:55.821Z,23.22
2022-08-17T19:59:48.329Z,23.15
2022-08-17T20:02:32.752Z,23.01
2022-08-17T20:05:05.016Z,23.07
2022-08-17T20:07:51.931Z,23.01
2022-08-17T20:10:54.922Z,23.03
2022-08-17T20:13:39.193Z,22.98
2022-08-17T20:16:06.564Z,22.98
2022-08-17T20:18:59.335Z,22.91
2022-08-17T20:21:35.167Z,22.90
2022-08-17T20:24:28.721Z,22.85
2022-08-17T20:26:59.639Z,22.82
2022-08-17T20:29:39.715Z,22.78
2022-08-17T20:32:47.756Z,22.68
2022-08-17T20:35:30.513Z,22.67
2022-08-17T20:38:11.068Z,22.60
2022-08-17T20:41:10.133Z,22.53
2022-08-17T20:43:37.271Z,22.54
2022-08-17T20:46:22.099Z,22.55
2022-08-17T20:48:53.558Z,22.40
2022-08-17T20:51:27.242Z,22.32
2022-08-17T20:53:53.790Z,22.43
2022-08-17T20:56:42.416Z,22.34
2022-08-17T20:59:31.603Z,22.33
2022-08-17T21:02:17.615Z,22.19
2022-08-17T21:04:51.369Z,22.16
2022-08-17T21:07:47.036Z,22.10
2022-08-17T21:10:25.764Z,22.09
2022-08-17T21:13:08.255Z,22.03
2022-08-17T21:15:50.392Z,22.09
2022-08-17T21:18:45.709Z,22.04
2022-08-17T21:21:18.431Z,21.96
2022-08-17T21:24:12.922Z,21.75
2022-08-17T21:27:14.063Z,21.65
2022-08-17T21:30:16.785Z,21.66
2022-08-17T21:33:16.736Z,21.59
2022-08-17T21:35:47.340Z,21.71
2022-08-17T21:38:16.123Z,21.85
2022-08-17T21:40:50.121Z,21.89
2022-08-17T21:43:29.369Z,21.71
2022-08-17T21:46:00.831Z,21.59
2022-08-17T21:48:29.288Z,21.74
2022-08-17T21:51:28.230Z,21.69
2022-08-17T21:53:58.112Z,21.62
2022-08-17T21:56:33.684Z,21.54
2022-08-17T21:59:07.610Z,21.48
2022-08-17T22:01:37.741Z,21.35
2022-08-17T22:04:11.425Z,21.37
2022-08-17T22:06:56.470Z,21.41
2022-08-17T22:09:41.486Z,21.45
2022-08-17T22:12:16.600Z,21.32
2022-08-17T22:14:57.887Z,21.25
2022-08-17T22:17:36.995Z,21.38
2022-08-17T22:20:15.020Z,21.38
2022-08-17T22:23:20.292Z,21.31
2022-08-17T22:26:09.584Z,21.07
2022-08-17T22:28:43.104Z,21.01
2022-08-17T22:31:14.550Z,20.88
2022-08-17T22:33:41.244Z,20.88
2022-08-17T22:36:09.114Z,20.96
2022-08-17T22:38:37.715Z,20.91
2022-08-17T22:41:23.308Z,20.59
2022-08-17T22:43:50.701Z,20.83
2022-08-17T22:46:22.289Z,20.50
2022-08-17T22:48:54.828Z,20.38
2022-08-17T22:51:24.336Z,20.14
2022-08-17T22:54:17.317Z,20.12
2022-08-17T22:57:18.876Z,20.11
2022-08-17T22:59:47.714Z,20.05
2022-08-17T23:02:23.913Z,20.09
2022-08-17T23:04:54.750Z,20.18
2022-08-17T23:07:21.708Z,20.19
2022-08-17T23:09:48.386Z,20.09
2022-08-17T23:12:20.829Z,20.11
2022-08-17T23:14:51.338Z,20.14
2022-08-17T23:17:18.175Z,20.09
2022-08-17T23:19:45.127Z,20.15
2022-08-17T23:22:11.994Z,20.09
2022-08-17T23:24:43.919Z,20.08
2022-08-17T23:27:11.739Z,19.97
2022-08-17T23:29:41.391Z,20.04
2022-08-17T23:32:11.737Z,19.90
2022-08-17T23:34:39.850Z,19.88
2022-08-17T23:37:07.674Z,19.90
2022-08-17T23:39:34.765Z,19.75
2022-08-17T23:42:05.387Z,19.74
2022-08-17T23:44:32.943Z,19.77
2022-08-17T23:46:59.455Z,19.78
2022-08-17T23:49:26.182Z,19.73
2022-08-17T23:51:54.847Z,19.78
2022-08-17T23:54:29.454Z,19.70
2022-08-17T23:56:56.363Z,19.39
